createdAt,value
2023-01-29T15:11:13.350Z,32.50
2023-01-29T15:13:44.741Z,17.20
2023-01-29T15:17:01.819Z,15.20
2023-01-29T15:19:48.363Z,14.60
2023-01-29T15:22:18.405Z,12.80
2023-01-29T15:24:48.862Z,15.80
2023-01-29T15:27:24.471Z,15.40
2023-01-29T15:30:02.183Z,16.50
2023-01-29T15:32:41.104Z,16.80
2023-01-29T15:35:21.685Z,14.20
2023-01-29T15:38:29.893Z,14.80
2023-01-29T15:41:30.511Z,15.80
2023-01-29T15:43:59.197Z,13.80
2023-01-29T15:46:34.267Z,14.50
2023-01-29T15:49:07.230Z,15.40
2023-01-29T20:04:48.293Z,9.20
2023-01-29T20:07:23.812Z,13.10
2023-01-29T20:09:56.721Z,11.70
2023-01-29T20:12:28.059Z,18.20
2023-01-29T20:14:57.287Z,15.30
2023-01-29T20:17:27.748Z,8.30
2023-01-29T20:19:57.106Z,12.30
2023-01-29T20:22:27.530Z,9.30
2023-01-29T20:24:58.418Z,7.00
2023-01-29T20:27:31.953Z,8.30
2023-01-29T20:30:02.444Z,7.20
2023-01-29T20:32:33.789Z,7.40
2023-01-29T20:35:04.909Z,7.60
2023-01-29T20:40:06.891Z,6.70
2023-01-29T20:42:36.321Z,6.10
2023-01-29T20:45:06.647Z,6.50
2023-01-29T20:50:09.244Z,6.00
2023-01-29T20:52:44.097Z,6.40
2023-01-29T20:55:17.535Z,5.90
2023-01-29T20:58:05.501Z,5.00
2023-01-29T21:00:39.593Z,7.50
2023-01-29T21:03:09.075Z,6.80
2023-01-29T21:05:39.790Z,5.90
2023-01-29T21:08:12.755Z,6.00
2023-01-29T21:10:45.862Z,5.90
2023-01-29T21:13:14.782Z,6.50
2023-01-29T21:15:44.837Z,9.60
2023-01-29T21:18:14.711Z,20.90
2023-01-29T21:20:46.851Z,8.70
2023-01-29T21:23:16.445Z,6.20
2023-01-29T21:25:46.875Z,5.90
2023-01-29T21:28:17.364Z,6.00
2023-01-29T21:30:50.710Z,5.70
2023-01-29T21:33:20.254Z,7.60
2023-01-29T21:35:58.394Z,7.80
2023-01-29T21:38:28.460Z,7.00
2023-01-29T21:41:07.451Z,10.00
2023-01-29T21:43:37.972Z,8.70
2023-01-29T21:46:14.130Z,6.20
2023-01-29T21:48:43.989Z,6.30
2023-01-29T21:51:13.348Z,6.70
2023-01-29T21:53:42.446Z,6.70
2023-01-29T21:56:14.224Z,6.80
2023-01-29T21:58:48.091Z,6.60
2023-01-29T22:01:39.863Z,6.90
2023-01-29T22:04:16.644Z,6.90
2023-01-29T22:06:45.700Z,7.90
2023-01-29T22:09:18.494Z,7.60
2023-01-29T22:11:47.883Z,8.20
2023-01-29T22:14:18.973Z,10.70
2023-01-29T22:16:49.762Z,8.00
2023-01-29T22:19:19.747Z,9.50
2023-01-29T22:21:49.016Z,7.30
2023-01-29T22:24:19.052Z,7.20
2023-01-29T22:26:49.513Z,6.10
2023-01-29T22:29:21.039Z,7.90
2023-01-29T22:31:50.775Z,7.30
2023-01-29T22:34:20.409Z,7.10
2023-01-29T22:36:51.395Z,6.10
2023-01-29T22:39:24.927Z,7.30
2023-01-29T22:41:54.844Z,6.00
2023-01-29T22:44:27.927Z,6.30
2023-01-29T22:46:58.370Z,6.80
2023-01-29T22:49:30.955Z,6.70
2023-01-29T22:52:12.443Z,5.90
2023-01-29T22:54:43.702Z,7.10
2023-01-29T22:57:14.829Z,6.90
2023-01-29T22:59:44.190Z,6.00
2023-01-29T23:02:13.315Z,6.10
2023-01-29T23:04:45.919Z,5.90
2023-01-29T23:07:18.561Z,4.70
2023-01-29T23:09:49.094Z,5.90
2023-01-29T23:12:22.082Z,5.60
2023-01-29T23:14:55.087Z,6.30
2023-01-29T23:17:31.688Z,6.40
2023-01-29T23:20:02.379Z,7.10
2023-01-29T23:22:37.110Z,6.00
2023-01-29T23:25:08.447Z,6.60
2023-01-29T23:27:39.044Z,5.70
2023-01-29T23:30:09.261Z,5.20
2023-01-29T23:32:39.128Z,5.30
2023-01-29T23:35:13.939Z,5.20
2023-01-29T23:37:44.881Z,6.40
2023-01-29T23:40:15.121Z,5.20
2023-01-29T23:42:44.708Z,4.50
2023-01-29T23:45:14.813Z,4.80
2023-01-29T23:47:45.592Z,6.10
